Air Navigation Services of Czech Republic
Airport: LKKB Updated:  20.09.2021 16:00:28  UTC
 METAR LKKB 20.09. 16:00 ...
METAR LKKB 201600Z 01004KT 330V040 CAVOK 12/07 Q1021 NOSIG RMK BLU BLU=
 TAF LKKB 20.09. 11:00 ...
TAF LKKB 201100Z 2012/2112 36005KT CAVOK      TEMPO 2012/2018 BKN040      PROB30 TEMPO 2100/2107 VRB02KT 5000 BR NSC      TEMPO 2108/2112 BKN040=